Time;durP1;ratioP1;P1;durP2;ratioP2;P2;SDS_P1;SDS_P2;PMS_P1;PMS_P2;Temp;Humidity;BMP_temperature;BMP_pressure;BME280_temperature;BME280_humidity;BME280_pressure;Samples;Min_cycle;Max_cycle;Signal;HPM_P1;HPM_P2
2021/10/10 00:01:53;;;;;;;28.85;14.70;;;;;;;6.79;62.72;101201.56;5037218;28;20132;-51
2021/10/10 00:04:19;;;;;;;35.75;15.38;;;;;;;6.71;62.76;101194.63;5046153;28;20076;-49
2021/10/10 00:06:45;;;;;;;37.15;15.88;;;;;;;6.76;63.12;101209.28;5043152;28;20045;-51
2021/10/10 00:09:10;;;;;;;31.88;14.90;;;;;;;6.77;63.14;101207.59;5023035;28;20046;-54
2021/10/10 00:11:36;;;;;;;29.98;14.93;;;;;;;6.73;62.68;101211.88;5032587;28;20033;-55
2021/10/10 00:14:02;;;;;;;32.60;14.13;;;;;;;6.70;62.82;101213.56;5016011;28;20041;-51
2021/10/10 00:16:28;;;;;;;31.90;16.23;;;;;;;6.67;62.95;101209.25;5043447;28;20040;-51
2021/10/10 00:18:54;;;;;;;31.42;15.48;;;;;;;6.66;63.18;101207.53;5032605;28;20052;-52
2021/10/10 00:21:19;;;;;;;34.40;16.48;;;;;;;6.61;63.31;101213.50;5031985;28;20854;-52
2021/10/10 00:23:45;;;;;;;32.25;15.93;;;;;;;6.53;63.81;101212.63;5032643;28;20103;-49
2021/10/10 00:26:11;;;;;;;30.13;14.85;;;;;;;6.50;63.73;101208.28;5032013;28;20049;-53
2021/10/10 00:28:37;;;;;;;34.80;15.10;;;;;;;6.46;63.59;101205.66;5032077;28;20037;-49
2021/10/10 00:31:02;;;;;;;30.77;15.05;;;;;;;6.35;64.42;101205.59;5043338;28;20033;-55
2021/10/10 00:33:28;;;;;;;29.13;15.35;;;;;;;6.24;64.75;101208.09;5037125;28;20041;-50
2021/10/10 00:35:54;;;;;;;36.50;16.55;;;;;;;6.16;65.12;101201.16;5049021;28;20068;-50
2021/10/10 00:38:20;;;;;;;34.40;15.30;;;;;;;6.12;65.29;101202.00;5050071;28;20044;-50
2021/10/10 00:40:46;;;;;;;33.60;15.65;;;;;;;6.03;66.05;101209.63;5050010;28;20049;-50
2021/10/10 00:43:12;;;;;;;32.50;15.48;;;;;;;6.01;65.99;101212.22;5047896;28;20048;-54
2021/10/10 00:45:38;;;;;;;36.58;16.08;;;;;;;5.97;65.70;101193.25;5031011;28;20042;-51
2021/10/10 00:48:04;;;;;;;30.88;15.68;;;;;;;6.14;65.56;101205.44;5041310;28;20040;-49
2021/10/10 00:50:30;;;;;;;29.58;15.32;;;;;;;6.12;65.97;101204.56;5047916;28;20071;-51
2021/10/10 00:52:59;;;;;;;31.58;15.15;;;;;;;5.95;66.00;101187.22;5040342;28;20437;-49
2021/10/10 00:55:25;;;;;;;34.38;15.52;;;;;;;6.05;66.66;101203.66;5036315;28;20044;-50
2021/10/10 00:57:51;;;;;;;30.17;14.93;;;;;;;5.97;66.43;101199.28;5036279;28;20048;-52
2021/10/10 01:00:18;;;;;;;35.38;15.10;;;;;;;6.02;66.19;101208.75;5032541;28;20055;-50
2021/10/10 01:02:44;;;;;;;32.35;14.88;;;;;;;5.93;66.75;101188.03;5051279;28;20051;-55
2021/10/10 01:05:11;;;;;;;36.03;15.65;;;;;;;6.12;66.44;101200.28;5048592;28;20040;-51
2021/10/10 01:07:37;;;;;;;32.45;16.02;;;;;;;6.17;66.44;101202.88;5022622;28;20054;-53
2021/10/10 01:10:05;;;;;;;34.15;15.75;;;;;;;6.18;66.99;101205.47;5034717;28;20141;-50
2021/10/10 01:12:32;;;;;;;33.20;16.60;;;;;;;6.20;66.23;101211.50;5049096;28;20045;-51
2021/10/10 01:14:59;;;;;;;31.33;15.27;;;;;;;6.23;66.70;101203.78;5051350;28;20412;-51
2021/10/10 01:17:25;;;;;;;31.60;16.35;;;;;;;6.28;66.36;101209.84;5049304;28;20516;-50
2021/10/10 01:19:53;;;;;;;31.20;15.40;;;;;;;6.29;66.14;101197.78;5043089;28;20037;-50
2021/10/10 01:22:19;;;;;;;31.63;15.80;;;;;;;6.33;66.56;101202.97;5030994;28;20037;-51
2021/10/10 01:24:45;;;;;;;32.40;15.32;;;;;;;6.34;66.41;101201.28;5032253;28;20053;-51
2021/10/10 01:27:13;;;;;;;35.70;14.98;;;;;;;6.34;66.11;101207.31;5043265;28;20057;-52
2021/10/10 01:29:38;;;;;;;33.00;16.30;;;;;;;6.34;66.18;101201.28;5049301;28;20048;-52
2021/10/10 01:32:04;;;;;;;32.75;15.85;;;;;;;6.33;66.23;101199.56;5042557;28;20045;-49
2021/10/10 01:34:30;;;;;;;31.05;15.90;;;;;;;6.33;65.97;101199.56;5043586;28;20128;-52
2021/10/10 01:36:56;;;;;;;32.53;15.38;;;;;;;6.33;66.33;101204.72;5020628;28;20052;-48
2021/10/10 01:39:21;;;;;;;31.40;15.85;;;;;;;6.34;65.88;101204.72;5034454;28;20072;-48
2021/10/10 01:41:47;;;;;;;34.58;15.85;;;;;;;6.36;65.98;101199.56;5043761;28;20079;-49
2021/10/10 01:44:15;;;;;;;33.30;15.27;;;;;;;6.27;66.14;101191.78;5030341;28;20520;-49
2021/10/10 01:46:42;;;;;;;30.65;16.00;;;;;;;6.36;65.71;101199.56;5028276;28;20053;-50
2021/10/10 01:49:08;;;;;;;28.35;15.15;;;;;;;6.36;65.68;101208.19;5065826;28;20608;-49
2021/10/10 01:51:35;;;;;;;34.60;14.98;;;;;;;6.31;65.54;101189.22;5048720;28;20067;-51
2021/10/10 01:54:01;;;;;;;30.13;15.25;;;;;;;6.34;65.36;101199.56;5035655;28;20045;-50
2021/10/10 01:56:27;;;;;;;33.63;15.80;;;;;;;6.35;65.83;101206.47;5029727;28;20045;-52
2021/10/10 01:58:53;;;;;;;31.48;15.52;;;;;;;6.35;65.63;101203.88;5043611;28;20489;-50
2021/10/10 02:01:19;;;;;;;31.48;15.20;;;;;;;6.35;65.37;101197.84;5048488;28;20075;-48
2021/10/10 02:03:44;;;;;;;33.10;14.80;;;;;;;6.34;65.27;101201.28;5036548;28;20579;-51
2021/10/10 02:06:10;;;;;;;30.83;14.73;;;;;;;6.33;65.42;101196.97;5038261;28;20036;-49
2021/10/10 02:08:36;;;;;;;39.45;15.73;;;;;;;6.28;65.02;101196.94;5031842;28;20099;-51
2021/10/10 02:11:02;;;;;;;29.80;14.70;;;;;;;6.22;65.29;101184.00;5017097;28;20042;-54
2021/10/10 02:13:27;;;;;;;30.40;14.73;;;;;;;6.29;65.10;101198.66;5037305;28;20103;-50
2021/10/10 02:15:53;;;;;;;35.88;15.18;;;;;;;6.29;65.62;101202.97;5033948;28;20037;-48
2021/10/10 02:18:19;;;;;;;35.30;14.80;;;;;;;6.29;65.13;101193.50;5029504;28;20529;-49
2021/10/10 02:20:45;;;;;;;27.35;14.40;;;;;;;6.32;65.31;101198.69;5013581;28;20048;-49
2021/10/10 02:23:10;;;;;;;27.33;15.38;;;;;;;6.32;64.85;101203.88;5030182;28;20228;-52
2021/10/10 02:25:36;;;;;;;28.27;15.10;;;;;;;6.32;64.78;101196.13;5031228;28;20037;-53
2021/10/10 02:28:02;;;;;;;31.40;15.10;;;;;;;6.17;64.60;101206.34;5045550;28;20040;-50
2021/10/10 02:30:27;;;;;;;34.92;16.83;;;;;;;6.01;65.29;101201.03;5036843;28;20113;-52
2021/10/10 02:32:53;;;;;;;30.25;14.65;;;;;;;5.95;65.60;101200.13;5041431;28;20041;-52
2021/10/10 02:35:19;;;;;;;31.60;15.10;;;;;;;5.85;65.95;101203.44;5031016;28;20045;-54
2021/10/10 02:37:45;;;;;;;34.42;14.90;;;;;;;5.74;65.98;101202.47;5047068;28;20083;-54
2021/10/10 02:40:11;;;;;;;34.97;15.55;;;;;;;5.71;66.30;101204.13;5048651;28;20049;-51
2021/10/10 02:42:37;;;;;;;34.55;16.00;;;;;;;5.74;66.34;101202.47;5047103;28;20132;-51
2021/10/10 02:45:05;;;;;;;33.83;15.27;;;;;;;5.80;66.08;101202.53;5036767;28;20505;-49
2021/10/10 02:47:32;;;;;;;34.72;16.80;;;;;;;5.81;66.77;101204.25;5022519;28;20056;-50
2021/10/10 02:49:58;;;;;;;31.98;15.02;;;;;;;5.79;66.90;101203.38;5028639;28;20050;-50
2021/10/10 02:52:24;;;;;;;33.72;15.02;;;;;;;5.78;67.02;101201.66;5009302;28;20103;-53
2021/10/10 02:54:50;;;;;;;32.15;14.68;;;;;;;5.69;67.42;101205.88;5042170;28;20041;-51
2021/10/10 02:57:17;;;;;;;30.85;15.10;;;;;;;5.57;67.32;101203.16;5047663;28;20063;-51
2021/10/10 02:59:42;;;;;;;30.85;14.20;;;;;;;5.43;68.03;101206.47;5048864;28;20040;-49
2021/10/10 03:02:08;;;;;;;34.55;15.52;;;;;;;5.23;68.31;101192.50;5037146;28;20045;-52
2021/10/10 03:04:33;;;;;;;29.35;15.35;;;;;;;5.34;68.42;101206.34;5028636;28;20064;-53
2021/10/10 03:06:59;;;;;;;29.67;15.30;;;;;;;5.35;68.64;101207.22;5029597;28;20037;-50
2021/10/10 03:09:25;;;;;;;30.67;14.75;;;;;;;5.29;68.86;101204.56;5026627;28;20574;-55
2021/10/10 03:11:51;;;;;;;30.20;14.75;;;;;;;5.26;69.04;101204.53;5023574;28;20037;-52
2021/10/10 03:14:17;;;;;;;26.73;14.43;;;;;;;5.11;69.47;101188.03;5030443;28;20045;-50
2021/10/10 03:16:42;;;;;;;30.15;14.25;;;;;;;5.06;70.21;101206.88;5027260;28;20037;-52
2021/10/10 03:19:08;;;;;;;33.28;14.68;;;;;;;5.03;70.28;101206.81;5030550;28;20579;-49
2021/10/10 03:21:34;;;;;;;26.98;14.60;;;;;;;5.03;70.49;101204.25;5030298;28;20045;-51
2021/10/10 03:24:00;;;;;;;32.75;14.85;;;;;;;5.03;70.45;101204.25;5034636;28;20049;-49
2021/10/10 03:26:26;;;;;;;32.92;15.15;;;;;;;5.08;69.64;101203.47;5033137;28;20080;-49
2021/10/10 03:28:52;;;;;;;33.85;13.93;;;;;;;5.08;69.78;101205.16;5033740;28;20065;-51
2021/10/10 03:31:18;;;;;;;31.13;15.25;;;;;;;5.08;69.74;101203.47;5033487;28;20516;-49
2021/10/10 03:33:44;;;;;;;36.78;18.23;;;;;;;5.08;69.72;101198.31;5040576;28;20044;-49
2021/10/10 03:36:10;;;;;;;34.28;17.30;;;;;;;5.08;69.54;101193.16;5033642;28;20135;-52
2021/10/10 03:38:36;;;;;;;33.45;20.55;;;;;;;5.15;69.41;101195.81;5012161;28;20033;-53
2021/10/10 03:41:02;;;;;;;31.38;17.25;;;;;;;5.21;69.14;101193.31;5045258;28;20032;-49
2021/10/10 03:43:28;;;;;;;28.92;15.75;;;;;;;5.25;69.28;101197.63;5049843;28;20095;-52
2021/10/10 03:45:54;;;;;;;29.67;15.32;;;;;;;5.28;68.78;101189.94;5040543;28;20417;-49
2021/10/10 03:48:20;;;;;;;31.02;14.57;;;;;;;5.33;68.25;101193.44;5030384;28;20124;-50
2021/10/10 03:50:46;;;;;;;32.00;16.20;;;;;;;5.38;68.68;101189.22;5047641;28;20132;-52
2021/10/10 03:53:11;;;;;;;28.42;13.48;;;;;;;5.40;68.55;101193.50;5034164;28;20053;-51
2021/10/10 03:55:38;;;;;;;27.10;14.70;;;;;;;5.37;68.42;101190.03;5039683;28;20033;-52
2021/10/10 03:58:06;;;;;;;30.05;13.80;;;;;;;5.29;68.66;101189.09;5051232;28;20504;-51
2021/10/10 04:00:32;;;;;;;27.60;13.18;;;;;;;5.28;68.47;101188.25;5037664;28;20564;-49
2021/10/10 04:03:02;;;;;;;28.88;12.63;;;;;;;5.30;68.44;101189.09;5032477;28;20136;-50
2021/10/10 04:07:57;;;;;;;25.97;13.63;;;;;;;5.47;67.40;101190.16;5031342;28;20059;-48
2021/10/10 04:10:23;;;;;;;25.67;13.43;;;;;;;5.52;67.26;101182.47;5039154;28;20797;-51
2021/10/10 04:12:49;;;;;;;27.52;13.75;;;;;;;5.60;67.06;101188.56;5012914;28;20041;-51
2021/10/10 04:15:15;;;;;;;34.47;13.07;;;;;;;5.68;66.90;101176.59;5035896;28;20042;-50
2021/10/10 04:17:41;;;;;;;30.92;12.85;;;;;;;5.69;66.67;101168.03;5012763;28;20077;-49
2021/10/10 04:20:11;;;;;;;31.50;13.13;;;;;;;5.85;66.45;101185.38;5028396;28;20060;-49
2021/10/10 04:22:37;;;;;;;;;;;;;;;5.92;66.35;101181.13;5032804;28;20445;-50
2021/10/10 04:25:03;;;;;;;26.42;13.43;;;;;;;5.88;65.74;101171.66;5032348;28;19916;-48
2021/10/10 04:27:29;;;;;;;22.35;12.32;;;;;;;5.98;66.18;101183.78;5030617;28;20095;-51
2021/10/10 04:29:55;;;;;;;28.48;14.10;;;;;;;6.06;65.64;101184.72;5031941;28;20405;-49
2021/10/10 04:32:20;;;;;;;34.78;13.63;;;;;;;6.10;65.26;101183.88;5034099;28;20065;-48
2021/10/10 04:34:46;;;;;;;23.63;12.95;;;;;;;6.17;65.18;101184.81;5051455;28;20040;-50
2021/10/10 04:37:12;;;;;;;25.10;13.10;;;;;;;6.19;64.75;101175.34;5050093;28;20568;-49
2021/10/10 04:39:37;;;;;;;28.23;12.77;;;;;;;6.21;64.65;101174.50;5043663;28;20136;-51
2021/10/10 04:42:05;;;;;;;26.08;12.52;;;;;;;6.09;64.34;101163.22;5041391;28;20059;-46
2021/10/10 04:44:32;;;;;;;27.20;13.18;;;;;;;6.11;64.15;101180.47;5041570;28;20041;-49
2021/10/10 04:46:58;;;;;;;29.23;13.15;;;;;;;6.16;64.42;101183.06;5018334;28;20042;-50
2021/10/10 04:49:23;;;;;;;26.45;13.35;;;;;;;6.18;64.16;101179.63;5016100;28;20107;-52
2021/10/10 04:51:49;;;;;;;29.50;13.27;;;;;;;6.25;64.03;101180.56;5038552;28;20045;-51
2021/10/10 04:54:15;;;;;;;25.48;12.20;;;;;;;6.26;63.54;101183.16;5030487;28;20069;-49
2021/10/10 04:56:41;;;;;;;28.00;12.98;;;;;;;6.27;63.31;101189.19;5030255;28;20544;-50
2021/10/10 04:59:07;;;;;;;27.60;13.40;;;;;;;6.37;63.00;101194.44;5047814;28;20041;-50
2021/10/10 05:01:33;;;;;;;27.90;13.27;;;;;;;6.47;63.28;101191.91;5021127;28;20039;-49
2021/10/10 05:03:59;;;;;;;25.08;12.40;;;;;;;6.55;62.89;101193.66;5033552;28;20463;-53
2021/10/10 05:06:25;;;;;;;26.38;12.38;;;;;;;6.65;62.24;101197.16;5031550;28;20064;-52
2021/10/10 05:08:50;;;;;;;27.25;13.25;;;;;;;6.67;62.15;101196.34;5032534;28;20037;-51
2021/10/10 05:11:16;;;;;;;25.67;13.00;;;;;;;6.77;61.93;101199.81;5037429;28;20132;-52
2021/10/10 05:13:42;;;;;;;26.52;13.05;;;;;;;6.74;61.89;101169.66;5030996;28;20041;-49
2021/10/10 05:16:08;;;;;;;24.63;12.07;;;;;;;6.95;61.58;101193.91;5030472;28;20037;-54
2021/10/10 05:18:33;;;;;;;28.50;12.88;;;;;;;6.99;61.30;101193.03;5031350;28;20042;-50
2021/10/10 05:20:59;;;;;;;23.92;12.75;;;;;;;7.12;60.96;101198.25;5030288;28;20045;-48
2021/10/10 05:23:25;;;;;;;25.17;12.68;;;;;;;7.30;60.72;101194.88;5035899;28;20087;-51
2021/10/10 05:25:50;;;;;;;23.55;12.68;;;;;;;7.85;59.55;101193.25;5049479;28;20064;-51
2021/10/10 05:28:16;;;;;;;22.92;12.45;;;;;;;8.55;57.16;101200.19;5042904;28;20046;-53
2021/10/10 05:30:42;;;;;;;28.65;13.43;;;;;;;9.19;55.41;101199.13;5042491;28;20051;-50
2021/10/10 05:33:09;;;;;;;25.88;13.15;;;;;;;9.85;53.54;101198.72;5044034;28;20049;-50
2021/10/10 05:35:36;;;;;;;23.40;13.38;;;;;;;10.32;52.20;101191.44;5050566;28;20037;-51
2021/10/10 05:38:02;;;;;;;23.73;12.85;;;;;;;11.13;50.38;101204.44;5038502;28;20045;-52
2021/10/10 05:40:27;;;;;;;28.17;13.20;;;;;;;11.86;48.34;101198.25;5044193;28;20424;-55
2021/10/10 05:42:53;;;;;;;26.08;12.93;;;;;;;12.14;46.28;101193.47;5033698;28;20517;-53
2021/10/10 05:45:19;;;;;;;21.70;12.75;;;;;;;12.59;45.28;101202.22;5046710;28;20041;-58
2021/10/10 05:47:45;;;;;;;21.83;13.13;;;;;;;12.75;44.68;101203.66;5021113;28;20052;-53
2021/10/10 05:50:10;;;;;;;26.15;13.43;;;;;;;13.44;43.52;101203.16;5037249;28;20436;-48
2021/10/10 05:52:36;;;;;;;24.75;13.45;;;;;;;13.91;42.63;101205.53;5044147;28;20048;-51
2021/10/10 05:55:06;;;;;;;21.67;13.07;;;;;;;14.72;41.50;101199.13;5012843;28;20076;-48
2021/10/10 05:57:43;;;;;;;23.40;13.30;;;;;;;15.50;40.02;101204.72;5035469;28;20516;-49
2021/10/10 06:00:10;;;;;;;27.67;14.43;;;;;;;16.26;38.85;101197.09;5049105;28;20041;-52
2021/10/10 06:02:36;;;;;;;22.80;13.00;;;;;;;16.90;37.56;101193.94;5036908;28;20045;-49
2021/10/10 06:05:02;;;;;;;23.90;12.52;;;;;;;17.58;36.61;101202.81;5026469;28;20056;-49
2021/10/10 06:07:29;;;;;;;20.48;12.90;;;;;;;18.16;35.13;101202.19;5025635;28;20457;-51
2021/10/10 06:09:54;;;;;;;24.27;13.35;;;;;;;18.68;34.35;101200.03;5035835;28;20516;-49
2021/10/10 06:12:21;;;;;;;23.08;13.35;;;;;;;18.58;33.77;101203.97;5028963;28;20052;-49
2021/10/10 06:14:50;;;;;;;26.73;14.05;;;;;;;18.86;32.90;101207.13;5022601;28;20091;-52
2021/10/10 06:17:17;;;;;;;25.45;14.00;;;;;;;19.04;31.92;101208.94;5009653;28;20041;-51
2021/10/10 06:19:44;;;;;;;20.15;13.55;;;;;;;19.40;31.98;101201.13;5009748;28;20099;-49
2021/10/10 06:22:10;;;;;;;25.33;12.98;;;;;;;19.23;31.30;101203.69;5026953;28;20049;-54
2021/10/10 06:24:36;;;;;;;21.73;13.90;;;;;;;19.41;31.48;101209.91;5046330;28;20055;-49
2021/10/10 06:27:03;;;;;;;24.60;13.65;;;;;;;19.95;30.63;101201.16;5032773;28;20107;-49
2021/10/10 06:29:28;;;;;;;27.98;14.65;;;;;;;20.28;30.29;101199.50;5029732;28;20194;-51
2021/10/10 06:31:54;;;;;;;22.95;14.05;;;;;;;20.36;29.57;101195.66;5038446;28;20543;-51
2021/10/10 06:34:20;;;;;;;22.17;12.77;;;;;;;20.13;29.77;101191.47;5028022;28;20087;-51
2021/10/10 06:36:45;;;;;;;24.50;13.60;;;;;;;20.32;29.68;101202.00;5031431;28;20072;-52
2021/10/10 06:39:11;;;;;;;24.02;13.57;;;;;;;19.88;29.59;101194.47;5033196;28;20064;-52
2021/10/10 06:41:37;;;;;;;22.60;14.13;;;;;;;19.60;30.18;101181.75;5042312;28;20090;-52
2021/10/10 06:44:03;;;;;;;23.10;13.65;;;;;;;19.47;30.34;101185.88;4992170;28;20041;-51
2021/10/10 06:46:28;;;;;;;21.60;13.90;;;;;;;20.09;29.81;101182.00;5023725;28;20457;-51
2021/10/10 06:48:54;;;;;;;24.45;14.52;;;;;;;20.25;29.26;101196.16;5013083;28;20065;-48
2021/10/10 06:51:20;;;;;;;25.42;14.35;;;;;;;20.74;28.61;101189.22;5028018;28;20065;-50
2021/10/10 06:53:45;;;;;;;23.98;14.32;;;;;;;21.10;28.42;101187.25;5026184;28;20080;-49
2021/10/10 06:56:11;;;;;;;30.85;15.25;;;;;;;21.66;28.01;101193.91;5028883;28;20045;-53
2021/10/10 06:58:37;;;;;;;26.42;14.82;;;;;;;22.19;27.34;101192.69;5026761;28;20050;-53
2021/10/10 07:01:03;;;;;;;28.83;14.68;;;;;;;22.53;27.04;101194.16;5027996;28;20071;-63
2021/10/10 07:03:29;;;;;;;21.00;14.38;;;;;;;22.81;26.76;101186.28;5027860;28;20046;-56
2021/10/10 07:05:55;;;;;;;23.13;14.15;;;;;;;23.11;26.41;101191.50;5035570;28;20144;-61
2021/10/10 07:08:40;;;;;;;23.65;14.68;;;;;;;23.54;25.90;101187.88;5028437;28;20367;-66
2021/10/10 07:11:10;;;;;;;29.83;18.67;;;;;;;24.00;25.12;101183.06;5012842;28;20041;-60
2021/10/10 07:13:38;;;;;;;20.70;14.35;;;;;;;24.17;24.32;101178.41;5013023;28;20045;-56
2021/10/10 07:16:04;;;;;;;22.13;13.57;;;;;;;23.69;24.44;101183.38;5029053;28;20045;-51
2021/10/10 07:18:42;;;;;;;24.38;14.20;;;;;;;23.79;24.53;101183.59;5027333;28;20115;-54
2021/10/10 07:26:23;;;;;;;21.95;13.48;;;;;;;24.14;24.42;101171.50;5027714;28;20041;-60
2021/10/10 07:28:49;;;;;;;23.73;13.80;;;;;;;24.24;24.25;101180.56;5026373;28;20041;-67
2021/10/10 07:31:15;;;;;;;25.33;13.90;;;;;;;24.13;24.54;101167.13;5028885;28;20037;-57
2021/10/10 07:33:41;;;;;;;23.25;13.45;;;;;;;24.10;24.38;101163.84;5028154;28;20044;-61
2021/10/10 07:36:07;;;;;;;17.58;11.75;;;;;;;24.08;24.14;101161.25;5027672;28;20064;-53
2021/10/10 07:38:33;;;;;;;16.17;11.50;;;;;;;24.66;23.73;101167.97;5028725;28;20652;-57
2021/10/10 07:40:59;;;;;;;20.02;12.20;;;;;;;24.83;23.20;101160.53;5034222;28;20079;-62
2021/10/10 07:43:26;;;;;;;22.50;12.35;;;;;;;24.92;23.31;101168.84;5047247;28;20140;-52
2021/10/10 07:45:52;;;;;;;21.45;11.38;;;;;;;25.18;22.59;101174.00;5039507;28;20048;-50
2021/10/10 07:48:18;;;;;;;22.20;12.77;;;;;;;25.38;22.77;101169.94;5015076;28;20038;-59
2021/10/10 07:50:46;;;;;;;18.27;12.13;;;;;;;25.70;22.33;101173.78;5028881;28;20049;-51
2021/10/10 07:53:13;;;;;;;17.85;12.55;;;;;;;25.99;22.16;101168.97;5027587;28;20047;-60
2021/10/10 07:55:39;;;;;;;17.00;11.77;;;;;;;25.91;22.11;101160.66;5045528;28;20044;-51
2021/10/10 07:58:05;;;;;;;17.92;12.25;;;;;;;26.52;21.51;101172.91;5031484;28;20037;-50
2021/10/10 08:00:30;;;;;;;24.42;11.98;;;;;;;26.47;21.23;101171.56;5026721;28;20100;-56
2021/10/10 08:02:58;;;;;;;18.70;11.43;;;;;;;26.25;21.57;101176.81;5028996;28;20072;-58
2021/10/10 08:05:26;;;;;;;19.85;12.80;;;;;;;25.98;21.64;101172.56;5032840;28;20037;-58
2021/10/10 08:07:53;;;;;;;21.88;12.32;;;;;;;25.01;22.52;101170.88;5034237;28;20041;-59
2021/10/10 08:10:19;;;;;;;24.50;13.15;;;;;;;24.42;22.94;101163.41;5043571;28;20056;-54
2021/10/10 08:12:45;;;;;;;23.70;12.48;;;;;;;24.44;23.00;101155.31;5039729;28;20038;-56
2021/10/10 08:15:11;;;;;;;21.25;11.70;;;;;;;24.61;23.00;101168.28;5026566;28;20142;-54
2021/10/10 08:17:37;;;;;;;24.20;11.98;;;;;;;24.38;23.39;101172.53;5040526;28;20144;-59
2021/10/10 08:20:04;;;;;;;20.05;11.50;;;;;;;23.40;23.75;101169.25;5029450;28;20037;-58
2021/10/10 08:22:33;;;;;;;16.40;11.02;;;;;;;23.76;24.04;101173.19;5032292;28;20524;-56
2021/10/10 08:24:59;;;;;;;18.52;11.32;;;;;;;23.74;23.77;101159.16;5030455;28;20048;-51
2021/10/10 08:27:25;;;;;;;21.50;10.23;;;;;;;24.00;23.73;101164.44;5033018;28;20053;-57
2021/10/10 08:29:50;;;;;;;18.02;10.57;;;;;;;23.97;23.37;101161.16;5031912;28;20170;-48
2021/10/10 08:32:16;;;;;;;20.50;9.68;;;;;;;24.24;23.73;101167.28;5033864;28;20060;-49
2021/10/10 08:34:42;;;;;;;18.45;10.00;;;;;;;24.87;22.87;101164.69;5030489;28;20067;-47
2021/10/10 08:37:08;;;;;;;16.50;9.68;;;;;;;25.59;22.52;101178.22;5029198;28;20124;-49
2021/10/10 08:39:34;;;;;;;16.70;9.40;;;;;;;26.42;21.17;101174.59;5028426;28;20038;-47
2021/10/10 08:42:03;;;;;;;13.95;8.82;;;;;;;27.03;20.74;101172.50;5029229;28;20045;-51
2021/10/10 08:44:38;;;;;;;21.30;9.50;;;;;;;27.72;20.10;101165.13;5045486;28;20137;-47
2021/10/10 08:47:07;;;;;;;15.40;9.02;;;;;;;28.49;19.32;101171.94;5015356;28;20072;-47
2021/10/10 08:49:36;;;;;;;19.73;9.20;;;;;;;28.97;18.69;101158.84;5052367;28;20057;-49
2021/10/10 08:52:03;;;;;;;13.43;8.75;;;;;;;29.16;18.65;101162.53;5030461;28;20194;-52
2021/10/10 08:54:29;;;;;;;17.92;8.93;;;;;;;29.64;17.95;101162.69;5011858;28;20083;-47
2021/10/10 08:56:56;;;;;;;15.38;8.55;;;;;;;29.37;18.11;101161.50;5012111;28;20069;-47
2021/10/10 08:59:24;;;;;;;18.58;8.93;;;;;;;28.83;17.97;101161.88;4994279;28;20037;-50
2021/10/10 09:01:51;;;;;;;20.33;8.45;;;;;;;29.02;18.25;101164.63;5012297;28;20045;-46
2021/10/10 09:04:17;;;;;;;13.65;8.23;;;;;;;29.00;18.11;101160.38;5031189;28;20042;-46
2021/10/10 09:06:43;;;;;;;15.30;8.48;;;;;;;28.93;18.12;101153.88;5013787;28;20433;-47
2021/10/10 09:09:27;;;;;;;15.07;9.18;;;;;;;29.51;18.37;101156.75;5031671;28;20033;-51
2021/10/10 09:12:01;;;;;;;15.65;8.43;;;;;;;29.49;17.50;101159.56;5030162;28;20045;-47
2021/10/10 09:14:27;;;;;;;17.17;9.30;;;;;;;29.47;17.92;101154.34;5027876;28;20048;-47
2021/10/10 09:17:16;;;;;;;19.08;8.85;;;;;;;29.87;17.54;101146.22;5011460;28;20088;-45
2021/10/10 09:19:59;;;;;;;14.00;9.40;;;;;;;29.74;17.16;101144.78;5026407;28;20095;-48
2021/10/10 09:22:26;;;;;;;18.33;8.80;;;;;;;28.82;18.11;101149.47;5011327;28;20042;-47
2021/10/10 09:24:55;;;;;;;14.60;10.70;;;;;;;29.94;17.85;101137.63;5026571;28;20040;-46
2021/10/10 09:27:26;;;;;;;11.73;8.32;;;;;;;30.05;17.35;101132.09;5010952;28;20052;-51
2021/10/10 09:29:53;;;;;;;25.25;9.52;;;;;;;30.94;16.70;101145.03;5011319;28;21835;-49
2021/10/10 09:32:21;;;;;;;14.35;7.97;;;;;;;30.80;16.38;101137.44;5009753;28;20464;-51
2021/10/10 09:34:49;;;;;;;12.30;7.15;;;;;;;30.65;16.84;101134.41;5010375;28;20033;-47
2021/10/10 09:37:25;;;;;;;13.55;6.53;;;;;;;31.71;15.78;101131.19;5011115;28;20121;-52
2021/10/10 09:40:05;;;;;;;9.93;6.50;;;;;;;32.27;15.64;101132.66;5021452;28;20132;-48
2021/10/10 09:42:39;;;;;;;15.90;8.15;;;;;;;32.97;15.14;101133.44;5030885;28;20045;-50
2021/10/10 09:45:15;;;;;;;11.57;5.80;;;;;;;32.17;14.92;101132.78;5045991;28;20065;-50
2021/10/10 09:47:54;;;;;;;10.52;5.40;;;;;;;31.25;15.58;101124.09;5030381;28;20076;-50
2021/10/10 09:50:20;;;;;;;10.45;5.57;;;;;;;30.58;15.69;101125.22;5029075;28;20049;-48
2021/10/10 09:52:46;;;;;;;7.32;4.63;;;;;;;31.06;15.52;101121.53;5022813;28;20046;-49
2021/10/10 09:55:12;;;;;;;6.30;4.32;;;;;;;31.30;14.77;101113.72;5009595;28;20195;-47
2021/10/10 09:57:47;;;;;;;5.82;5.18;;;;;;;31.82;14.87;101104.00;5010800;28;20528;-50
2021/10/10 10:00:26;;;;;;;8.88;4.72;;;;;;;32.19;14.50;101111.09;5009729;28;20049;-49
2021/10/10 10:03:00;;;;;;;8.07;4.40;;;;;;;32.12;14.21;101116.25;5026119;28;20129;-48
2021/10/10 10:05:27;;;;;;;6.50;4.43;;;;;;;32.13;14.41;101117.94;5010761;28;20103;-47
2021/10/10 10:07:54;;;;;;;6.78;4.20;;;;;;;31.96;14.46;101105.31;5009409;28;20048;-49
2021/10/10 10:10:22;;;;;;;7.07;5.03;;;;;;;31.87;14.32;101112.50;5010507;28;20255;-48
2021/10/10 10:12:48;;;;;;;10.90;5.50;;;;;;;32.44;14.58;101112.09;5020000;28;20056;-49
2021/10/10 10:15:15;;;;;;;8.07;4.80;;;;;;;33.17;14.33;101114.16;5030157;28;20041;-49
2021/10/10 10:17:41;;;;;;;9.02;5.50;;;;;;;33.14;14.11;101116.28;5030272;28;20053;-48
2021/10/10 10:20:07;;;;;;;7.72;5.15;;;;;;;32.43;14.22;101107.69;5029978;28;20041;-48
2021/10/10 10:22:36;;;;;;;7.95;4.97;;;;;;;32.31;14.46;101109.81;5028906;28;20045;-47
2021/10/10 10:25:04;;;;;;;11.90;5.82;;;;;;;32.28;14.44;101097.53;5008623;28;20418;-49
2021/10/10 10:27:30;;;;;;;8.75;7.18;;;;;;;32.65;14.29;101093.72;5010453;28;20057;-47
2021/10/10 10:29:57;;;;;;;7.63;5.47;;;;;;;32.73;14.17;101105.38;5009050;28;20030;-48
2021/10/10 10:32:23;;;;;;;9.57;6.85;;;;;;;31.44;14.78;101107.00;5008013;28;20053;-48
2021/10/10 10:35:09;;;;;;;9.90;6.03;;;;;;;31.18;14.92;101093.47;5010137;28;20056;-50
2021/10/10 10:37:43;;;;;;;9.48;6.65;;;;;;;31.58;15.07;101097.56;5018018;28;20037;-48
2021/10/10 10:40:15;;;;;;;11.48;7.55;;;;;;;31.83;14.91;101094.94;5019866;28;20038;-49
2021/10/10 10:42:43;;;;;;;13.65;8.50;;;;;;;32.13;14.73;101095.56;5027887;28;20041;-48
2021/10/10 10:45:22;;;;;;;7.63;5.50;;;;;;;32.08;14.56;101092.47;5029828;28;20037;-46
2021/10/10 10:47:49;;;;;;;11.00;8.95;;;;;;;32.09;14.61;101088.75;5017607;28;20497;-50
2021/10/10 10:50:22;;;;;;;8.13;5.63;;;;;;;32.35;14.85;101086.94;5029692;28;20084;-48
2021/10/10 10:52:57;;;;;;;10.27;7.40;;;;;;;32.31;14.48;101085.56;5021534;28;20513;-47
2021/10/10 10:55:28;;;;;;;8.18;5.20;;;;;;;31.73;14.95;101078.06;5008579;28;20115;-47
2021/10/10 10:58:09;;;;;;;10.18;5.35;;;;;;;32.28;14.79;101083.22;5009306;28;20044;-53
2021/10/10 11:01:05;;;;;;;8.75;5.05;;;;;;;31.48;14.73;101082.34;5027773;28;20042;-53
2021/10/10 11:03:31;;;;;;;8.32;5.40;;;;;;;31.31;14.90;101068.88;5028223;28;20053;-52
2021/10/10 11:06:17;;;;;;;9.30;5.10;;;;;;;30.80;14.99;101086.41;5011197;28;20509;-52
2021/10/10 11:08:43;;;;;;;7.05;5.35;;;;;;;30.40;15.41;101075.13;5023424;28;20056;-48
2021/10/10 11:11:25;;;;;;;6.35;5.43;;;;;;;29.79;15.86;101065.59;5009695;28;20034;-48
2021/10/10 11:13:57;;;;;;;7.40;4.85;;;;;;;30.06;15.61;101064.88;4992699;28;20052;-52
2021/10/10 11:16:26;;;;;;;11.02;4.15;;;;;;;30.12;15.41;101074.19;5025204;28;20065;-51
2021/10/10 11:18:56;;;;;;;6.47;4.25;;;;;;;30.22;15.41;101059.78;5009825;28;20140;-52
2021/10/10 11:21:24;;;;;;;15.90;6.38;;;;;;;30.16;15.55;101067.53;5025067;28;20540;-51
2021/10/10 11:23:51;;;;;;;;;;;;;;;28.48;16.66;101065.84;5010153;28;20046;-48
2021/10/10 11:26:17;;;;;;;9.40;4.15;;;;;;;26.69;17.82;101046.19;5009806;28;19917;-48